Lyons, Indiana
Current Conditions -  °F | °C
As of 11:15 AM on Sunday 23 Nov 2014 (Local Time) from KDCY Reporting Station
Moderate Rain Moderate Rain  
Wind Chill: 51°   Ceiling: 2700
Heat Index: 51°   Visibility: 7mi
Dew Point: 51°   Wind: 9mph
Humidity: 100%   Direction: 130°SE
Pressure: 29.77"   Gusts: NA
Location:  38.99°N, 87.08°W
Report Text: KDCY 231615Z AUTO 13008KT 7SM RA OVC027 11/11 A2977 RMK AO2 T01050105
Loading
Personal Weather Stations






























Interactive Weather Map New forecast layout! Learn more

10-Day Weather Forecast

Advertisements
Track Severe Weather on mobile